Terminal Aerodrome Forecast
Issued by NWS Grand Forks, ND

Home | Current Version | Previous Version | Graphics & Text | Print | Product List | Glossary On
Versions: 1 2 3 4 5 6 7 8 9 10 11 12 13 14 15 16 17 18
000
FTUS43 KFGF 211724
TAFGFK
TAF
KGFK 211724Z 2118/2218 20009KT P6SM SCT250
     FM220600 18008KT P6SM FEW250 WS020/21040KT
     FM221000 18006KT P6SM FEW250
     FM221500 18011KT P6SM SKC=

USA.gov is the U.S. government's official web portal to all federal, state and local government web resources and services.